Kolobrzeg, Poland
Current Conditions -  °F | °C
As of 5:50 PM on Tuesday 27 Jan 2015 (Local Time) from EDAH Reporting Station
Light Rain Light Rain  
Wind Chill: 32°   Ceiling: 1200
Heat Index: 37°   Visibility: 6mi
Dew Point: 34°   Wind: 7mph
Humidity: 87%   Direction: 320°NW
Pressure: 29.88"   Gusts: NA
Location:  54.19°N, 15.57°E
Report Text: EDAH 271550Z 32006KT 280V360 9999 -RA BKN012 03/01 Q1012
Loading
Personal Weather Stations






























Interactive Weather Map New forecast layout! Learn more

10-Day Weather Forecast

Advertisements
Track Severe Weather on mobile